Time;durP1;ratioP1;P1;durP2;ratioP2;P2;SDS_P1;SDS_P2;PMS_P1;PMS_P2;Temp;Humidity;BMP_temperature;BMP_pressure;BME280_temperature;BME280_humidity;BME280_pressure;Samples;Min_cycle;Max_cycle;Signal;HPM_P1;HPM_P2
2023/03/25 00:01:01;;;;;;;2.65;0.50;;;10.30;99.90;;;;;;4975969;28;20501;-69
2023/03/25 00:03:32;;;;;;;1.00;0.45;;;10.20;99.90;;;;;;4971874;28;20043;-69
2023/03/25 00:05:58;;;;;;;0.88;0.25;;;10.20;99.90;;;;;;4993173;28;20026;-70
2023/03/25 00:08:25;;;;;;;0.10;0.10;;;10.20;99.90;;;;;;4989726;28;20473;-70
2023/03/25 00:10:59;;;;;;;1.45;1.27;;;10.20;99.90;;;;;;4993117;28;20026;-69
2023/03/25 00:13:26;;;;;;;7.57;1.08;;;10.20;99.90;;;;;;4988959;28;20125;-69
2023/03/25 00:15:57;;;;;;;0.43;0.30;;;10.30;99.90;;;;;;4959416;28;20101;-70
2023/03/25 00:18:25;;;;;;;0.22;0.20;;;10.30;99.90;;;;;;4954675;28;20038;-70
2023/03/25 00:20:52;;;;;;;0.55;0.15;;;10.30;99.90;;;;;;4991455;28;20524;-70
2023/03/25 00:23:20;;;;;;;4.07;0.20;;;10.30;99.90;;;;;;4971281;28;20687;-70
2023/03/25 00:25:46;;;;;;;4.88;0.30;;;10.30;99.90;;;;;;4975262;28;20573;-70
2023/03/25 00:28:14;;;;;;;0.22;0.17;;;10.30;99.90;;;;;;4989348;28;20034;-70
2023/03/25 00:30:42;;;;;;;0.90;0.63;;;10.30;99.90;;;;;;4975384;28;20026;-70
2023/03/25 00:33:12;;;;;;;2.47;0.50;;;10.20;99.90;;;;;;4986702;28;20088;-70
2023/03/25 00:35:43;;;;;;;5.82;1.88;;;10.20;99.90;;;;;;4975522;28;20383;-70
2023/03/25 00:38:13;;;;;;;3.17;0.32;;;10.20;99.90;;;;;;4988838;28;20113;-71
2023/03/25 00:40:39;;;;;;;4.57;0.98;;;10.20;99.90;;;;;;4975230;28;20045;-68
2023/03/25 00:43:06;;;;;;;0.68;0.25;;;10.20;99.90;;;;;;4971077;28;20041;-71
2023/03/25 00:45:33;;;;;;;1.95;0.28;;;10.20;99.90;;;;;;4974860;28;20022;-69
2023/03/25 00:47:59;;;;;;;0.85;0.28;;;10.10;99.90;;;;;;4988602;28;20014;-70
2023/03/25 00:50:25;;;;;;;0.03;0.03;;;10.10;99.90;;;;;;4992467;28;20544;-71
2023/03/25 00:52:53;;;;;;;0.17;0.17;;;10.10;99.90;;;;;;4969041;28;20048;-70
2023/03/25 00:55:19;;;;;;;2.08;0.20;;;10.10;99.90;;;;;;4975318;28;20038;-70
2023/03/25 00:57:45;;;;;;;0.60;0.17;;;10.10;99.90;;;;;;4969054;28;20538;-70
2023/03/25 01:00:15;;;;;;;2.63;0.40;;;10.00;99.90;;;;;;4974856;28;20038;-70
2023/03/25 01:02:42;;;;;;;0.30;0.10;;;10.10;99.90;;;;;;4969924;28;20068;-69
2023/03/25 01:05:10;;;;;;;0.10;0.10;;;10.00;99.90;;;;;;4974704;28;20101;-70
2023/03/25 01:07:38;;;;;;;4.93;1.02;;;10.00;99.90;;;;;;4969307;28;20034;-69
2023/03/25 01:10:05;;;;;;;0.47;0.20;;;10.10;99.90;;;;;;4991912;28;20030;-70
2023/03/25 01:12:31;;;;;;;0.43;0.17;;;10.10;99.90;;;;;;4954558;28;20617;-70
2023/03/25 01:14:56;;;;;;;5.45;0.52;;;10.10;99.90;;;;;;4991633;28;20112;-69
2023/03/25 01:17:22;;;;;;;0.57;0.32;;;10.10;99.90;;;;;;4988839;28;20398;-69
2023/03/25 01:19:48;;;;;;;2.83;0.28;;;10.10;99.90;;;;;;4991494;28;20105;-69
2023/03/25 01:22:14;;;;;;;6.57;0.50;;;10.00;99.90;;;;;;4971705;28;20081;-69
2023/03/25 01:24:40;;;;;;;0.77;0.65;;;10.00;99.90;;;;;;4971374;28;20789;-68
2023/03/25 01:27:05;;;;;;;0.13;0.05;;;9.90;99.90;;;;;;4990802;28;20026;-69
2023/03/25 01:29:31;;;;;;;0.47;0.30;;;9.90;99.90;;;;;;4988870;28;20033;-68
2023/03/25 01:31:57;;;;;;;3.13;0.68;;;9.90;99.90;;;;;;4991896;28;20037;-69
2023/03/25 01:34:24;;;;;;;0.68;0.40;;;9.90;99.90;;;;;;4987576;28;20038;-69
2023/03/25 01:36:50;;;;;;;0.85;0.20;;;9.80;99.90;;;;;;4974122;28;20576;-69
2023/03/25 01:39:17;;;;;;;0.00;0.00;;;9.80;99.90;;;;;;4970130;28;20030;-69
2023/03/25 01:41:47;;;;;;;0.43;0.28;;;9.60;99.90;;;;;;4974191;28;20030;-69
2023/03/25 01:44:18;;;;;;;0.47;0.10;;;9.50;99.90;;;;;;4987335;28;20034;-69
2023/03/25 01:46:45;;;;;;;0.40;0.15;;;9.40;99.90;;;;;;4974108;28;20525;-70
2023/03/25 01:49:20;;;;;;;1.38;0.55;;;9.30;99.90;;;;;;4954429;28;20027;-69
2023/03/25 01:51:49;;;;;;;5.13;0.45;;;9.10;99.90;;;;;;4974706;28;20026;-69
2023/03/25 01:54:16;;;;;;;3.15;0.57;;;9.10;99.90;;;;;;4969813;28;20038;-70
2023/03/25 01:56:45;;;;;;;0.28;0.28;;;8.90;99.90;;;;;;4974066;28;20114;-70
2023/03/25 01:59:14;;;;;;;0.70;0.32;;;8.60;99.90;;;;;;4968444;28;20060;-70
2023/03/25 02:01:44;;;;;;;0.68;0.20;;;8.50;99.90;;;;;;4957633;28;20544;-71
2023/03/25 02:04:11;;;;;;;0.60;0.30;;;8.30;99.90;;;;;;4982012;28;20380;-70
2023/03/25 02:06:52;;;;;;;0.20;0.10;;;8.30;99.90;;;;;;4952297;28;20065;-71
2023/03/25 02:09:24;;;;;;;2.47;0.15;;;8.20;99.90;;;;;;4967176;28;20035;-70
2023/03/25 02:11:54;;;;;;;0.40;0.22;;;8.20;99.90;;;;;;4947894;28;20080;-69
2023/03/25 02:14:25;;;;;;;1.10;0.38;;;8.10;99.90;;;;;;4983679;28;20129;-70
2023/03/25 02:17:43;;;;;;;0.10;0.10;;;8.10;99.90;;;;;;4955201;28;20427;-70
2023/03/25 02:20:53;;;;;;;2.33;0.55;;;8.00;99.90;;;;;;4957676;28;20050;-71
2023/03/25 02:24:18;;;;;;;0.10;0.10;;;7.90;99.90;;;;;;4884901;29;20166;-70
2023/03/25 02:27:40;;;;;;;0.00;0.00;;;7.70;99.90;;;;;;4949058;28;20035;-71
2023/03/25 02:30:46;;;;;;;0.20;0.20;;;7.70;99.90;;;;;;4931186;28;20065;-70
2023/03/25 02:33:46;;;;;;;0.00;0.00;;;7.60;99.90;;;;;;4987091;28;20303;-71
2023/03/25 02:36:44;;;;;;;0.00;0.00;;;7.60;99.90;;;;;;4981037;28;20117;-71
2023/03/25 02:39:41;;;;;;;0.10;0.10;;;7.50;99.90;;;;;;4970798;28;20030;-71
2023/03/25 02:42:22;;;;;;;0.10;0.10;;;7.60;99.90;;;;;;4939327;28;20035;-71
2023/03/25 02:45:12;;;;;;;0.30;0.30;;;7.70;99.90;;;;;;4972837;28;20041;-71
2023/03/25 02:47:46;;;;;;;0.20;0.20;;;7.90;99.90;;;;;;4984977;28;20039;-70
2023/03/25 02:50:20;;;;;;;0.17;0.05;;;8.00;99.90;;;;;;4974055;28;20022;-71
2023/03/25 02:52:57;;;;;;;1.42;0.32;;;8.00;99.90;;;;;;4968319;28;20436;-71
2023/03/25 02:55:24;;;;;;;1.50;0.10;;;8.00;99.90;;;;;;4973659;28;20458;-70
2023/03/25 02:57:56;;;;;;;0.28;0.20;;;8.20;99.90;;;;;;4953844;28;20023;-70
2023/03/25 03:00:27;;;;;;;0.38;0.15;;;8.20;99.90;;;;;;4957553;28;20030;-70
2023/03/25 03:02:58;;;;;;;2.25;0.40;;;8.30;99.90;;;;;;4969949;28;20363;-70
2023/03/25 03:05:34;;;;;;;1.33;0.45;;;8.30;99.90;;;;;;4973707;28;20041;-70
2023/03/25 03:08:24;;;;;;;0.00;0.00;;;8.40;99.90;;;;;;4990224;28;20034;-71
2023/03/25 03:11:13;;;;;;;0.45;0.15;;;8.50;99.90;;;;;;4976631;28;20041;-70
2023/03/25 03:13:59;;;;;;;0.47;0.20;;;8.40;99.90;;;;;;5002664;23;20494;-72
2023/03/25 03:16:48;;;;;;;5.57;0.10;;;8.40;99.90;;;;;;5002665;28;20041;-72
2023/03/25 03:19:45;;;;;;;0.22;0.10;;;8.40;99.90;;;;;;4988493;28;20033;-73
2023/03/25 03:22:44;;;;;;;0.45;0.10;;;8.40;99.90;;;;;;4986354;28;20371;-72
2023/03/25 03:25:27;;;;;;;0.10;0.10;;;8.40;99.90;;;;;;4965306;28;20113;-72
2023/03/25 03:28:18;;;;;;;0.10;0.10;;;8.30;99.90;;;;;;4943567;28;20034;-72
2023/03/25 03:31:14;;;;;;;;;;;8.30;99.90;;;;;;4983994;28;20041;-73
2023/03/25 03:33:52;;;;;;;0.00;0.00;;;8.30;99.90;;;;;;4984181;28;19914;-73
2023/03/25 03:36:23;;;;;;;0.38;0.17;;;8.20;99.90;;;;;;4985376;28;20030;-73
2023/03/25 03:38:57;;;;;;;5.90;0.82;;;8.20;99.90;;;;;;4967259;28;20061;-73
2023/03/25 03:41:26;;;;;;;0.52;0.30;;;8.40;99.90;;;;;;4968785;28;20042;-73
2023/03/25 03:44:08;;;;;;;1.35;0.77;;;8.50;99.90;;;;;;4966824;28;20498;-73
2023/03/25 03:46:42;;;;;;;0.10;0.10;;;8.40;99.90;;;;;;4967660;28;20034;-73
2023/03/25 03:49:14;;;;;;;0.38;0.20;;;8.40;99.90;;;;;;4967347;28;20023;-73
2023/03/25 03:51:56;;;;;;;0.98;0.20;;;8.40;99.90;;;;;;4985210;28;20029;-73
2023/03/25 03:54:32;;;;;;;0.80;0.35;;;8.40;99.90;;;;;;4983729;28;20547;-73
2023/03/25 03:57:12;;;;;;;0.80;0.30;;;8.40;99.90;;;;;;4962449;28;20486;-73
2023/03/25 03:59:51;;;;;;;1.00;0.20;;;8.50;99.90;;;;;;4965720;28;20097;-72
2023/03/25 04:02:40;;;;;;;1.23;0.30;;;8.50;99.90;;;;;;4965367;28;20105;-73
2023/03/25 04:05:11;;;;;;;6.53;0.30;;;8.50;99.90;;;;;;4959231;28;20030;-73
2023/03/25 04:07:53;;;;;;;6.88;0.40;;;8.60;99.90;;;;;;4963113;28;20019;-73
2023/03/25 04:10:40;;;;;;;3.40;0.40;;;8.60;99.90;;;;;;4964035;28;20042;-73
2023/03/25 04:13:12;;;;;;;0.35;0.13;;;8.60;99.90;;;;;;4972540;28;20031;-73
2023/03/25 04:15:40;;;;;;;0.93;0.22;;;8.60;99.90;;;;;;4987003;28;20033;-73
2023/03/25 04:18:05;;;;;;;0.05;0.05;;;8.60;99.90;;;;;;4955318;28;20039;-73
2023/03/25 04:20:35;;;;;;;4.20;0.50;;;8.70;99.90;;;;;;4967445;28;20037;-73
2023/03/25 04:23:08;;;;;;;0.10;0.10;;;8.70;99.90;;;;;;4972208;28;20027;-72
2023/03/25 04:25:34;;;;;;;2.10;0.65;;;8.60;99.90;;;;;;4981262;28;20030;-72
2023/03/25 04:28:00;;;;;;;0.55;0.38;;;8.60;99.90;;;;;;4986790;28;20038;-72
2023/03/25 04:30:27;;;;;;;1.10;0.10;;;8.60;99.90;;;;;;4981158;28;20070;-73
2023/03/25 04:32:53;;;;;;;0.10;0.10;;;8.70;99.90;;;;;;4970079;28;20113;-73
2023/03/25 04:35:20;;;;;;;1.55;0.70;;;8.60;99.90;;;;;;4980715;28;20238;-73
2023/03/25 04:37:47;;;;;;;3.97;0.73;;;8.70;99.90;;;;;;4976836;28;20580;-73
2023/03/25 04:40:17;;;;;;;1.20;0.50;;;8.70;99.90;;;;;;4979588;28;20471;-73
2023/03/25 04:42:45;;;;;;;2.53;0.20;;;8.70;99.90;;;;;;4987460;28;20434;-73
2023/03/25 04:45:17;;;;;;;0.93;0.20;;;8.70;99.90;;;;;;4958813;28;20031;-73
2023/03/25 04:47:46;;;;;;;1.75;0.90;;;8.70;99.90;;;;;;4970959;28;20026;-72
2023/03/25 04:50:26;;;;;;;1.27;0.30;;;8.70;99.90;;;;;;4980569;28;20023;-72
2023/03/25 04:52:53;;;;;;;4.05;0.30;;;8.80;99.90;;;;;;4940632;28;20061;-72
2023/03/25 04:55:20;;;;;;;0.85;0.40;;;8.80;99.90;;;;;;4980438;28;20031;-72
2023/03/25 04:57:51;;;;;;;3.05;0.50;;;8.90;99.90;;;;;;4957072;28;20034;-72
2023/03/25 05:00:19;;;;;;;;;;;8.90;99.90;;;;;;4975388;28;20424;-73
2023/03/25 05:02:52;;;;;;;3.45;0.22;;;8.90;99.90;;;;;;4990683;28;19920;-73
2023/03/25 05:05:24;;;;;;;0.17;0.13;;;8.90;99.90;;;;;;4991911;28;20053;-73
2023/03/25 05:07:56;;;;;;;0.17;0.17;;;8.90;99.90;;;;;;4991941;28;20030;-73
2023/03/25 05:10:25;;;;;;;0.52;0.20;;;8.90;99.90;;;;;;4972298;28;20478;-73
2023/03/25 05:13:03;;;;;;;2.47;0.35;;;8.80;99.90;;;;;;4939240;28;20077;-73
2023/03/25 05:15:34;;;;;;;1.10;0.60;;;8.80;99.90;;;;;;4953297;28;20050;-73
2023/03/25 05:18:01;;;;;;;2.47;0.57;;;8.70;99.90;;;;;;4972496;28;20026;-73
2023/03/25 05:20:27;;;;;;;4.55;0.50;;;8.60;99.90;;;;;;4972289;28;20070;-73
2023/03/25 05:22:56;;;;;;;0.35;0.20;;;8.50;99.90;;;;;;4954571;28;20066;-73
2023/03/25 05:25:22;;;;;;;0.38;0.30;;;8.50;99.90;;;;;;4972255;28;20034;-73
2023/03/25 05:27:48;;;;;;;4.70;0.65;;;8.50;99.90;;;;;;4954844;28;20026;-73
2023/03/25 05:30:14;;;;;;;1.65;0.50;;;8.60;99.90;;;;;;4971361;28;20062;-73
2023/03/25 05:32:41;;;;;;;1.15;0.20;;;8.60;99.90;;;;;;4954877;28;20058;-73
2023/03/25 05:35:07;;;;;;;7.32;0.55;;;8.70;99.90;;;;;;4954377;28;20033;-72
2023/03/25 05:37:33;;;;;;;6.03;1.17;;;8.80;99.90;;;;;;4971905;28;20442;-72
2023/03/25 05:39:59;;;;;;;0.80;0.25;;;8.70;99.90;;;;;;4970897;28;20037;-72
2023/03/25 05:42:24;;;;;;;2.60;0.38;;;8.80;99.90;;;;;;4971901;28;20030;-73
2023/03/25 05:44:52;;;;;;;0.47;0.20;;;8.90;99.90;;;;;;4971642;28;20033;-73
2023/03/25 05:47:23;;;;;;;1.60;0.38;;;8.90;99.90;;;;;;4971821;28;20023;-73
2023/03/25 05:49:52;;;;;;;1.05;0.35;;;8.80;99.90;;;;;;4971968;28;20427;-73
2023/03/25 05:52:19;;;;;;;12.13;1.05;;;8.90;99.90;;;;;;4954755;28;20031;-72
2023/03/25 05:54:49;;;;;;;4.22;0.45;;;8.90;99.90;;;;;;4954277;28;20035;-73
2023/03/25 05:57:15;;;;;;;1.00;0.45;;;9.00;99.90;;;;;;4972174;28;20037;-73
2023/03/25 05:59:41;;;;;;;2.35;1.42;;;9.00;99.90;;;;;;4971772;28;20113;-73
2023/03/25 06:02:13;;;;;;;0.30;0.15;;;9.00;99.90;;;;;;4954658;28;20026;-73
2023/03/25 06:04:40;;;;;;;2.00;0.63;;;9.10;99.90;;;;;;4954192;28;20487;-73
2023/03/25 06:07:18;;;;;;;0.52;0.20;;;9.10;99.90;;;;;;4954652;28;20027;-73
2023/03/25 06:09:46;;;;;;;5.03;1.15;;;9.10;99.90;;;;;;4955527;28;20502;-73
2023/03/25 06:12:18;;;;;;;0.10;0.10;;;9.10;99.90;;;;;;4937706;29;20522;-72
2023/03/25 06:14:52;;;;;;;2.97;0.70;;;9.20;99.90;;;;;;4955416;28;20145;-74
2023/03/25 06:17:23;;;;;;;1.25;0.30;;;9.20;99.90;;;;;;4952714;29;20031;-72
2023/03/25 06:19:52;;;;;;;10.82;1.00;;;9.20;99.90;;;;;;4935533;29;20074;-72
2023/03/25 06:22:20;;;;;;;3.53;0.30;;;9.30;99.90;;;;;;4952125;29;20428;-71
2023/03/25 06:24:51;;;;;;;4.15;0.45;;;9.30;99.90;;;;;;4951710;29;20070;-72
2023/03/25 06:27:18;;;;;;;3.30;0.50;;;9.30;99.90;;;;;;4920078;29;20027;-71
2023/03/25 06:29:45;;;;;;;5.68;1.63;;;9.40;99.90;;;;;;4935172;29;20055;-72
2023/03/25 06:32:13;;;;;;;2.80;1.10;;;9.40;99.90;;;;;;4935085;29;20031;-74
2023/03/25 06:34:41;;;;;;;5.53;1.25;;;9.50;99.90;;;;;;4950247;29;20118;-76
2023/03/25 06:37:08;;;;;;;3.78;1.35;;;9.50;99.90;;;;;;4919401;29;20035;-68
2023/03/25 06:39:36;;;;;;;3.40;0.40;;;9.50;99.90;;;;;;4934925;29;20031;-75
2023/03/25 06:42:04;;;;;;;4.43;0.65;;;9.50;99.90;;;;;;4944201;28;20033;-76
2023/03/25 06:44:30;;;;;;;8.20;1.08;;;9.40;99.90;;;;;;4972626;28;20060;-77
2023/03/25 06:46:56;;;;;;;3.13;0.73;;;9.40;99.90;;;;;;4972571;28;20046;-74
2023/03/25 06:49:21;;;;;;;2.38;1.35;;;9.40;99.90;;;;;;4949771;28;20031;-76
2023/03/25 06:51:48;;;;;;;1.05;0.70;;;9.40;99.90;;;;;;4957412;28;20026;-79
2023/03/25 06:54:14;;;;;;;1.25;0.43;;;9.50;99.90;;;;;;4941527;28;20030;-76
2023/03/25 06:56:40;;;;;;;3.72;1.10;;;9.50;99.90;;;;;;4957258;28;20053;-70
2023/03/25 06:59:06;;;;;;;3.30;1.10;;;9.50;99.90;;;;;;4956830;28;20026;-74
2023/03/25 07:01:32;;;;;;;0.22;0.22;;;9.40;99.90;;;;;;4978328;28;20046;-75
2023/03/25 07:03:57;;;;;;;2.03;0.65;;;9.50;99.90;;;;;;4956582;28;20497;-75
2023/03/25 07:06:24;;;;;;;3.65;0.50;;;9.50;99.90;;;;;;4956143;28;20031;-76
2023/03/25 07:08:50;;;;;;;5.25;0.47;;;9.50;99.90;;;;;;4955587;28;20023;-74
2023/03/25 07:11:25;;;;;;;2.35;0.55;;;9.60;99.90;;;;;;4955201;28;20578;-74
2023/03/25 07:13:52;;;;;;;6.25;0.77;;;9.70;99.90;;;;;;4972199;28;20030;-73
2023/03/25 07:16:20;;;;;;;1.45;0.52;;;9.80;99.90;;;;;;4972989;28;20027;-78
2023/03/25 07:18:46;;;;;;;1.50;0.63;;;9.90;99.90;;;;;;4955400;28;20073;-72
2023/03/25 07:21:12;;;;;;;3.45;0.98;;;9.90;99.90;;;;;;4972974;28;20411;-75
2023/03/25 07:23:37;;;;;;;1.58;0.30;;;10.00;99.90;;;;;;4974026;28;20045;-75
2023/03/25 07:26:03;;;;;;;2.58;1.63;;;10.00;99.90;;;;;;4973987;28;20033;-74
2023/03/25 07:28:29;;;;;;;1.50;0.50;;;10.10;99.90;;;;;;4956859;28;20165;-76
2023/03/25 07:30:55;;;;;;;4.05;1.05;;;10.00;99.90;;;;;;4975352;28;20037;-74
2023/03/25 07:33:20;;;;;;;9.52;1.42;;;10.20;99.90;;;;;;4957751;28;20046;-74
2023/03/25 07:35:46;;;;;;;5.60;1.27;;;10.30;99.90;;;;;;4974902;28;20035;-74
2023/03/25 07:38:12;;;;;;;2.53;0.70;;;10.40;99.90;;;;;;4974025;28;20042;-74
2023/03/25 07:40:39;;;;;;;1.38;0.63;;;10.30;99.90;;;;;;4974049;28;20125;-74
2023/03/25 07:43:05;;;;;;;4.10;0.60;;;10.30;99.90;;;;;;4973413;28;20086;-74
2023/03/25 07:45:31;;;;;;;4.20;1.65;;;10.40;99.90;;;;;;4966823;28;20028;-74
2023/03/25 07:47:59;;;;;;;1.48;0.55;;;10.40;99.90;;;;;;4974135;28;20030;-74
2023/03/25 07:50:25;;;;;;;4.45;0.75;;;10.50;99.90;;;;;;4964374;28;20058;-73
2023/03/25 07:52:52;;;;;;;2.70;0.50;;;10.60;99.90;;;;;;4979550;28;20408;-73
2023/03/25 07:55:17;;;;;;;4.80;0.55;;;10.60;99.90;;;;;;4978191;28;20053;-73
2023/03/25 07:57:43;;;;;;;3.25;0.63;;;10.70;99.90;;;;;;4971339;28;20039;-74
2023/03/25 08:00:10;;;;;;;0.68;0.40;;;10.80;99.90;;;;;;4965726;28;20046;-74
2023/03/25 08:02:38;;;;;;;1.02;0.30;;;11.00;99.90;;;;;;4972172;28;20069;-74
2023/03/25 08:05:05;;;;;;;0.52;0.30;;;11.10;99.90;;;;;;4971231;28;20030;-74
2023/03/25 08:07:32;;;;;;;2.25;0.70;;;11.00;99.90;;;;;;4975053;28;20102;-74
2023/03/25 08:09:57;;;;;;;4.97;0.30;;;11.00;99.90;;;;;;4962015;28;20115;-74
2023/03/25 08:12:23;;;;;;;1.75;0.43;;;11.10;99.90;;;;;;4982741;28;20030;-74
2023/03/25 08:14:49;;;;;;;3.25;1.08;;;11.10;99.90;;;;;;4984239;28;20034;-73
2023/03/25 08:17:16;;;;;;;0.63;0.30;;;11.00;99.90;;;;;;4975454;28;20068;-73
2023/03/25 08:19:41;;;;;;;0.20;0.20;;;10.90;99.90;;;;;;4992861;28;20035;-73
2023/03/25 08:22:07;;;;;;;2.40;0.40;;;10.80;99.90;;;;;;4975277;28;20046;-73
2023/03/25 08:24:33;;;;;;;2.33;0.47;;;10.60;99.90;;;;;;4992322;28;20046;-73
2023/03/25 08:26:59;;;;;;;2.50;0.82;;;10.60;99.90;;;;;;4992566;28;20446;-74
2023/03/25 08:29:26;;;;;;;3.13;0.55;;;10.70;99.90;;;;;;4992573;28;20033;-73
2023/03/25 08:31:53;;;;;;;5.93;0.60;;;10.80;99.90;;;;;;4975289;28;20026;-74
2023/03/25 08:34:21;;;;;;;3.53;0.40;;;10.90;99.90;;;;;;4974558;28;20112;-74
2023/03/25 08:36:48;;;;;;;2.17;0.45;;;10.90;99.90;;;;;;4975200;28;20394;-74
2023/03/25 08:39:15;;;;;;;1.00;0.30;;;10.90;99.90;;;;;;4975051;28;20104;-74
2023/03/25 08:41:42;;;;;;;2.25;0.70;;;10.90;99.90;;;;;;4989316;28;20471;-74
2023/03/25 08:44:09;;;;;;;3.95;0.70;;;11.00;99.90;;;;;;4972056;28;20138;-74
2023/03/25 08:46:35;;;;;;;6.97;1.42;;;11.10;99.90;;;;;;4952672;28;20023;-74
2023/03/25 08:49:02;;;;;;;9.27;0.73;;;11.10;99.90;;;;;;4972454;28;20018;-74
2023/03/25 08:51:28;;;;;;;1.10;0.45;;;11.20;99.90;;;;;;4972877;28;20027;-74
2023/03/25 08:53:54;;;;;;;0.40;0.40;;;11.10;99.90;;;;;;4955363;28;20035;-73
2023/03/25 08:56:20;;;;;;;16.95;1.13;;;11.20;99.90;;;;;;4959564;28;20042;-72
2023/03/25 08:58:45;;;;;;;12.70;0.63;;;11.10;99.90;;;;;;4953379;29;20066;-72
2023/03/25 09:01:11;;;;;;;0.47;0.32;;;11.00;99.90;;;;;;4936163;29;20236;-72
2023/03/25 09:03:39;;;;;;;7.43;0.60;;;11.10;99.90;;;;;;4952837;28;20050;-74
2023/03/25 09:06:06;;;;;;;0.32;0.20;;;11.20;99.90;;;;;;4953264;29;20027;-73
2023/03/25 09:08:33;;;;;;;0.57;0.30;;;11.20;99.90;;;;;;4920201;29;20039;-73
2023/03/25 09:10:59;;;;;;;1.30;0.20;;;11.30;99.90;;;;;;4960427;28;20026;-73
2023/03/25 09:13:25;;;;;;;0.80;0.30;;;11.40;99.90;;;;;;4989440;23;20108;-72
2023/03/25 09:15:51;;;;;;;0.85;0.52;;;11.40;99.90;;;;;;4973951;28;20425;-72
2023/03/25 09:18:17;;;;;;;1.30;0.20;;;11.40;99.90;;;;;;4991407;28;20093;-71
2023/03/25 09:20:47;;;;;;;0.35;0.10;;;11.50;99.90;;;;;;4990382;28;20071;-70
2023/03/25 09:23:14;;;;;;;1.83;0.50;;;11.30;99.90;;;;;;4973919;28;20054;-75
2023/03/25 09:25:39;;;;;;;2.28;0.30;;;11.30;99.90;;;;;;4991575;28;20026;-72
2023/03/25 09:28:05;;;;;;;2.95;0.50;;;11.20;99.90;;;;;;4973964;28;20030;-72
2023/03/25 09:30:31;;;;;;;0.85;0.10;;;11.20;99.90;;;;;;4991291;28;20471;-73
2023/03/25 09:32:57;;;;;;;1.15;0.10;;;11.10;99.90;;;;;;4973377;28;20054;-76
2023/03/25 09:35:23;;;;;;;0.13;0.10;;;11.20;99.90;;;;;;4991347;28;20030;-72
2023/03/25 09:37:48;;;;;;;3.30;0.20;;;11.20;99.90;;;;;;4991231;28;20149;-76
2023/03/25 09:40:17;;;;;;;1.75;0.50;;;11.20;99.90;;;;;;4989916;28;20034;-77
2023/03/25 09:43:25;;;;;;;0.40;0.17;;;11.30;99.90;;;;;;4990890;28;20041;-75
2023/03/25 09:45:53;;;;;;;0.00;0.00;;;11.50;99.90;;;;;;4966129;28;20041;-73
2023/03/25 09:48:40;;;;;;;0.10;0.08;;;11.50;99.90;;;;;;4990996;28;20402;-68
2023/03/25 09:51:24;;;;;;;0.20;0.20;;;11.20;99.90;;;;;;4974183;28;20132;-69
2023/03/25 09:53:56;;;;;;;1.80;0.57;;;11.20;99.90;;;;;;4975414;28;20023;-70
2023/03/25 09:56:27;;;;;;;1.98;0.35;;;11.20;99.90;;;;;;4990840;28;20034;-70
2023/03/25 09:59:04;;;;;;;;;;;11.20;99.90;;;;;;4974227;28;20077;-71
2023/03/25 10:01:55;;;;;;;0.30;0.20;;;11.30;99.90;;;;;;4989369;28;20471;-69
2023/03/25 10:04:42;;;;;;;1.15;0.20;;;11.40;99.90;;;;;;4990398;28;20105;-66
2023/03/25 10:07:35;;;;;;;3.03;0.50;;;11.20;99.90;;;;;;4973650;28;20037;-67
2023/03/25 10:10:11;;;;;;;4.75;1.02;;;11.20;99.90;;;;;;4989390;28;20041;-66
2023/03/25 10:13:04;;;;;;;1.75;0.30;;;11.20;99.90;;;;;;4988949;28;20161;-67
2023/03/25 10:15:43;;;;;;;0.65;0.25;;;11.30;99.90;;;;;;4974708;28;20045;-68
2023/03/25 10:18:42;;;;;;;0.75;0.10;;;11.20;99.90;;;;;;4975544;28;20041;-68
2023/03/25 10:21:40;;;;;;;4.38;0.40;;;11.10;99.90;;;;;;4959341;28;20141;-69
2023/03/25 10:24:48;;;;;;;2.95;0.30;;;11.00;99.90;;;;;;4958930;28;20039;-70
2023/03/25 10:27:48;;;;;;;0.20;0.15;;;11.10;99.90;;;;;;4975520;28;20042;-68
2023/03/25 10:30:34;;;;;;;0.15;0.13;;;11.20;99.90;;;;;;4958860;28;20035;-69
2023/03/25 10:33:15;;;;;;;0.43;0.17;;;11.30;99.90;;;;;;4974892;28;20105;-66
2023/03/25 10:35:46;;;;;;;;;;;11.40;99.90;;;;;;4959424;28;20495;-69
2023/03/25 10:38:17;;;;;;;1.57;0.27;;;11.60;99.90;;;;;;4958749;28;19914;-66
2023/03/25 10:40:48;;;;;;;4.07;0.63;;;11.60;99.90;;;;;;4975283;28;20070;-71
2023/03/25 10:43:17;;;;;;;1.95;0.52;;;11.50;99.90;;;;;;4958102;28;20034;-66
2023/03/25 10:45:45;;;;;;;11.32;0.35;;;11.60;99.90;;;;;;4974524;28;20038;-67
2023/03/25 10:48:16;;;;;;;0.77;0.32;;;11.60;99.90;;;;;;4973816;28;20029;-71
2023/03/25 10:50:42;;;;;;;0.45;0.30;;;11.60;99.90;;;;;;4975133;28;20054;-68
2023/03/25 10:53:35;;;;;;;0.10;0.10;;;11.70;99.90;;;;;;4995329;28;20118;-67
2023/03/25 10:56:12;;;;;;;0.73;0.30;;;11.70;99.90;;;;;;4970735;28;20078;-67
2023/03/25 10:58:41;;;;;;;0.10;0.10;;;11.60;99.90;;;;;;5008969;28;20557;-65
2023/03/25 11:01:21;;;;;;;7.47;0.60;;;11.50;99.90;;;;;;4996439;28;20088;-66
2023/03/25 11:03:53;;;;;;;0.30;0.22;;;11.30;99.90;;;;;;4996114;28;20041;-67
2023/03/25 11:06:29;;;;;;;1.02;0.32;;;11.00;99.90;;;;;;4996754;28;20072;-69
2023/03/25 11:09:22;;;;;;;2.03;0.73;;;10.50;99.90;;;;;;5013573;28;20101;-68
2023/03/25 11:11:48;;;;;;;1.23;0.45;;;9.80;99.90;;;;;;4999573;28;20034;-67
2023/03/25 11:14:20;;;;;;;2.30;0.30;;;9.50;99.90;;;;;;4975970;28;20063;-69
2023/03/25 11:16:59;;;;;;;4.93;0.32;;;9.20;99.90;;;;;;4981657;28;20053;-69
2023/03/25 11:19:29;;;;;;;0.20;0.20;;;9.20;99.90;;;;;;4996200;28;20034;-69
2023/03/25 11:22:03;;;;;;;0.43;0.20;;;9.20;99.90;;;;;;5001821;28;20042;-69
2023/03/25 11:24:39;;;;;;;0.10;0.10;;;9.30;99.90;;;;;;4975985;28;20038;-68
2023/03/25 11:27:07;;;;;;;4.05;0.15;;;9.70;99.90;;;;;;4976176;28;20038;-68
2023/03/25 11:29:36;;;;;;;1.80;0.40;;;10.10;99.90;;;;;;4974724;28;20084;-68
2023/03/25 11:32:14;;;;;;;3.30;0.40;;;10.30;99.90;;;;;;4978565;28;20037;-68
2023/03/25 11:34:46;;;;;;;0.30;0.28;;;10.40;99.90;;;;;;4985873;28;20442;-67
2023/03/25 11:37:21;;;;;;;0.40;0.17;;;10.30;99.90;;;;;;4995531;28;20117;-68
2023/03/25 11:39:54;;;;;;;0.15;0.10;;;10.20;99.90;;;;;;5013159;28;20037;-68
2023/03/25 11:42:41;;;;;;;2.22;0.55;;;10.20;99.90;;;;;;5006018;28;20026;-68
2023/03/25 11:45:34;;;;;;;1.00;0.30;;;10.10;99.90;;;;;;4984085;28;20045;-68
2023/03/25 11:48:20;;;;;;;0.20;0.17;;;10.20;99.90;;;;;;5012938;28;20038;-68
2023/03/25 11:50:52;;;;;;;0.43;0.25;;;10.30;99.90;;;;;;5012941;28;20049;-68
2023/03/25 11:53:20;;;;;;;3.40;0.28;;;10.80;99.90;;;;;;5012552;28;20030;-68
2023/03/25 11:55:50;;;;;;;1.30;0.50;;;11.10;99.90;;;;;;4995396;28;20093;-68
2023/03/25 11:58:21;;;;;;;0.20;0.20;;;11.60;99.90;;;;;;4995441;28;20041;-68
2023/03/25 12:00:49;;;;;;;1.23;0.30;;;11.90;99.90;;;;;;4995732;28;20040;-69
2023/03/25 12:03:25;;;;;;;0.32;0.10;;;12.00;99.90;;;;;;4994888;28;20129;-68
2023/03/25 12:06:04;;;;;;;1.00;0.43;;;12.30;99.90;;;;;;5012185;28;20034;-68
2023/03/25 12:08:55;;;;;;;0.90;0.30;;;12.30;99.90;;;;;;4995964;28;20512;-69
2023/03/25 12:11:37;;;;;;;2.88;1.35;;;12.90;99.90;;;;;;4966702;28;20065;-68
2023/03/25 12:14:58;;;;;;;2.08;0.30;;;13.30;99.90;;;;;;4965185;28;20053;-69
2023/03/25 12:17:49;;;;;;;2.20;0.70;;;13.90;99.90;;;;;;4973585;28;20045;-70
2023/03/25 12:20:44;;;;;;;0.47;0.28;;;14.60;99.90;;;;;;4973553;28;20093;-69
2023/03/25 12:23:54;;;;;;;3.30;0.47;;;15.10;99.90;;;;;;4972868;28;20046;-69
2023/03/25 12:27:07;;;;;;;0.10;0.10;;;15.60;98.40;;;;;;4955570;28;20442;-70
2023/03/25 12:29:52;;;;;;;3.50;0.80;;;15.00;99.30;;;;;;4953195;28;20050;-69
2023/03/25 12:32:44;;;;;;;0.30;0.20;;;14.10;99.90;;;;;;4957543;28;20031;-69
2023/03/25 12:35:39;;;;;;;1.92;0.68;;;13.60;99.90;;;;;;4957617;28;20035;-69
2023/03/25 12:38:52;;;;;;;4.43;0.20;;;14.50;99.90;;;;;;4956115;28;20043;-69
2023/03/25 12:42:18;;;;;;;0.73;0.22;;;14.00;99.90;;;;;;4972946;28;20121;-68
2023/03/25 12:45:19;;;;;;;3.78;0.55;;;14.40;99.90;;;;;;4961715;28;20410;-69
2023/03/25 12:48:03;;;;;;;1.08;0.20;;;14.80;99.90;;;;;;4972931;28;20100;-69
2023/03/25 12:50:58;;;;;;;2.50;0.30;;;16.00;99.90;;;;;;4974269;28;20451;-69
2023/03/25 12:54:09;;;;;;;0.73;0.40;;;17.00;99.00;;;;;;4989641;28;20046;-69
2023/03/25 12:56:59;;;;;;;0.10;0.08;;;17.20;96.70;;;;;;4977423;28;20043;-68
2023/03/25 12:59:54;;;;;;;2.73;0.37;;;15.20;97.10;;;;;;5010177;28;20112;-69
2023/03/25 13:03:11;;;;;;;0.98;0.30;;;14.20;99.30;;;;;;4956340;28;20042;-69
2023/03/25 13:06:33;;;;;;;0.47;0.20;;;13.40;99.90;;;;;;4972463;28;20887;-69
2023/03/25 13:09:10;;;;;;;0.93;0.13;;;14.60;99.20;;;;;;4972336;28;20046;-67
2023/03/25 13:11:53;;;;;;;2.60;0.80;;;15.20;96.80;;;;;;4960068;28;20037;-68
2023/03/25 13:14:49;;;;;;;5.47;0.57;;;14.90;96.10;;;;;;4970589;28;20052;-68
2023/03/25 13:17:30;;;;;;;0.50;0.20;;;14.60;97.00;;;;;;4955713;28;20042;-70
2023/03/25 13:20:06;;;;;;;0.98;0.10;;;13.90;96.80;;;;;;4954731;28;20415;-75
2023/03/25 13:22:36;;;;;;;3.53;0.40;;;14.70;96.10;;;;;;4971591;28;20117;-71
2023/03/25 13:25:08;;;;;;;2.92;0.43;;;15.30;96.00;;;;;;4961242;28;20062;-67
2023/03/25 13:27:40;;;;;;;1.55;0.40;;;16.00;94.60;;;;;;4982946;28;20029;-70
2023/03/25 13:30:35;;;;;;;1.27;0.30;;;15.10;95.90;;;;;;4978689;28;20054;-67